Rechercher aéroport 
image banner adimage banner ad
image banner ad

LI-SS04 - Valledoria

Situé à Valledoria, Italy

ICAO - , IATA -

Données fournies par Airmate  

Information générale

Coordonnées: N40°55'48" E8°48'40"
Élévation : 29 feet MSL.
 
Voir autres Aéroports à Sardinia

Données opérationnelles

Accessible au public
Heure actuelle UTC:
Heure actuelle locale:
Météo à : LIEA - Alghero/Fertilia ( 55 km )
METAR: LIEA 261120Z 30020G34KT 250V340 9999 FEW035 19/08 Q1008
TAF: TAF LIEA 260500Z 2606/2706 28025G35KT 9999 SCT030 TEMPO 2700/2706 TSRA
Voir NOTAMs / SUP AIP / TFR affectant cet aéroport [VIEW]
Fréquences de communication: [VIEW]

Pistes:

Identifiant RWYQFULongueur (ft)Largeur (ft)SurfaceLDA (ft)
10102098GRASS
28102098GRASS

Coordonnées de l'aéroport

Adresse: Valledoria Italy

Vue satellite de LI-SS04